Konya/Eregli, Turkey
Current Conditions -  °F | °C
As of 5:20 AM on Saturday 25 Oct 2014 (Local Time) from LTAF Reporting Station
Haze Haze  
Wind Chill: 61°   Ceiling: Unl
Heat Index: 61°   Visibility: 3mi
Dew Point: 57°   Wind: 3mph
Humidity: 88%   Direction: 360°N
Pressure: 30"   Gusts: NA
Location:  37.51°N, 34.06°E
Report Text: LTAF 250220Z 36003KT 5000 BR FEW040 16/14 Q1016 NOSIG
Loading
Personal Weather Stations






























Interactive Weather Map
Tropical Storm Tracking
New forecast layout! Learn more

10-Day Weather Forecast

Advertisements
Track Severe Weather on mobile